sensor_id;sensor_type;location;lat;lon;timestamp;temperature;humidity
42835;DHT22;29335;50.526;30.458;2022-07-10T00:00:25;18.80;99.90
42835;DHT22;29335;50.526;30.458;2022-07-10T00:02:52;18.90;99.90
42835;DHT22;29335;50.526;30.458;2022-07-10T00:05:20;18.90;99.90
42835;DHT22;29335;50.526;30.458;2022-07-10T00:07:47;18.90;99.90
42835;DHT22;29335;50.526;30.458;2022-07-10T00:10:12;18.90;99.90
42835;DHT22;29335;50.526;30.458;2022-07-10T00:12:38;18.90;99.90
42835;DHT22;29335;50.526;30.458;2022-07-10T00:15:04;18.80;99.90
42835;DHT22;29335;50.526;30.458;2022-07-10T00:17:31;18.60;99.90
42835;DHT22;29335;50.526;30.458;2022-07-10T00:19:56;18.70;99.90
42835;DHT22;29335;50.526;30.458;2022-07-10T00:22:22;19.70;99.90
42835;DHT22;29335;50.526;30.458;2022-07-10T00:24:48;18.50;99.90
42835;DHT22;29335;50.526;30.458;2022-07-10T00:27:16;18.40;99.90
42835;DHT22;29335;50.526;30.458;2022-07-10T00:29:41;18.60;99.90
42835;DHT22;29335;50.526;30.458;2022-07-10T00:32:07;18.50;99.90
42835;DHT22;29335;50.526;30.458;2022-07-10T00:34:33;19.10;99.90
42835;DHT22;29335;50.526;30.458;2022-07-10T00:36:58;18.90;99.90
42835;DHT22;29335;50.526;30.458;2022-07-10T00:39:24;18.50;99.90
42835;DHT22;29335;50.526;30.458;2022-07-10T00:41:50;18.50;99.90
42835;DHT22;29335;50.526;30.458;2022-07-10T00:44:16;18.50;99.90
42835;DHT22;29335;50.526;30.458;2022-07-10T00:46:42;18.80;99.90
42835;DHT22;29335;50.526;30.458;2022-07-10T00:49:07;18.30;99.90
42835;DHT22;29335;50.526;30.458;2022-07-10T00:51:33;18.50;99.90
42835;DHT22;29335;50.526;30.458;2022-07-10T00:53:59;18.60;99.90
42835;DHT22;29335;50.526;30.458;2022-07-10T00:56:26;19.60;99.90
42835;DHT22;29335;50.526;30.458;2022-07-10T00:58:53;18.60;99.90
42835;DHT22;29335;50.526;30.458;2022-07-10T01:01:19;18.50;99.90
42835;DHT22;29335;50.526;30.458;2022-07-10T01:03:45;18.50;99.90
42835;DHT22;29335;50.526;30.458;2022-07-10T01:06:12;19.40;99.90
42835;DHT22;29335;50.526;30.458;2022-07-10T01:08:39;18.30;99.90
42835;DHT22;29335;50.526;30.458;2022-07-10T01:11:05;18.50;99.90
42835;DHT22;29335;50.526;30.458;2022-07-10T01:13:30;18.20;99.90
42835;DHT22;29335;50.526;30.458;2022-07-10T01:15:57;19.80;99.90
42835;DHT22;29335;50.526;30.458;2022-07-10T01:18:25;19.90;99.90
42835;DHT22;29335;50.526;30.458;2022-07-10T01:20:55;18.90;99.90
42835;DHT22;29335;50.526;30.458;2022-07-10T01:23:21;18.70;99.90
42835;DHT22;29335;50.526;30.458;2022-07-10T01:25:48;18.20;99.90
42835;DHT22;29335;50.526;30.458;2022-07-10T01:28:14;18.40;99.90
42835;DHT22;29335;50.526;30.458;2022-07-10T01:30:40;19.20;99.90
42835;DHT22;29335;50.526;30.458;2022-07-10T01:33:06;18.10;99.90
42835;DHT22;29335;50.526;30.458;2022-07-10T01:35:32;18.30;99.90
42835;DHT22;29335;50.526;30.458;2022-07-10T01:37:57;17.80;99.90
42835;DHT22;29335;50.526;30.458;2022-07-10T01:40:23;17.70;99.90
42835;DHT22;29335;50.526;30.458;2022-07-10T01:42:48;18.10;99.90
42835;DHT22;29335;50.526;30.458;2022-07-10T01:45:16;18.00;99.90
42835;DHT22;29335;50.526;30.458;2022-07-10T01:47:43;18.00;99.90
42835;DHT22;29335;50.526;30.458;2022-07-10T01:50:09;18.80;99.90
42835;DHT22;29335;50.526;30.458;2022-07-10T01:52:35;17.90;99.90
42835;DHT22;29335;50.526;30.458;2022-07-10T01:55:01;19.90;99.90
42835;DHT22;29335;50.526;30.458;2022-07-10T01:57:27;17.70;99.90
42835;DHT22;29335;50.526;30.458;2022-07-10T01:59:52;17.70;99.90
42835;DHT22;29335;50.526;30.458;2022-07-10T02:02:18;17.70;99.90
42835;DHT22;29335;50.526;30.458;2022-07-10T02:04:44;17.70;99.90
42835;DHT22;29335;50.526;30.458;2022-07-10T02:07:14;17.70;99.90
42835;DHT22;29335;50.526;30.458;2022-07-10T02:09:41;17.70;99.90
42835;DHT22;29335;50.526;30.458;2022-07-10T02:12:08;17.60;99.90
42835;DHT22;29335;50.526;30.458;2022-07-10T02:14:34;17.60;99.90
42835;DHT22;29335;50.526;30.458;2022-07-10T02:17:00;17.50;99.90
42835;DHT22;29335;50.526;30.458;2022-07-10T02:19:25;17.50;99.90
42835;DHT22;29335;50.526;30.458;2022-07-10T02:21:51;17.50;99.90
42835;DHT22;29335;50.526;30.458;2022-07-10T02:24:17;17.50;99.90
42835;DHT22;29335;50.526;30.458;2022-07-10T02:26:43;18.10;99.90
42835;DHT22;29335;50.526;30.458;2022-07-10T02:29:08;19.30;99.90
42835;DHT22;29335;50.526;30.458;2022-07-10T02:31:34;19.50;99.90
42835;DHT22;29335;50.526;30.458;2022-07-10T02:34:02;17.40;99.90
42835;DHT22;29335;50.526;30.458;2022-07-10T02:36:27;19.20;99.90
42835;DHT22;29335;50.526;30.458;2022-07-10T02:38:53;18.50;99.90
42835;DHT22;29335;50.526;30.458;2022-07-10T02:41:19;17.40;99.90
42835;DHT22;29335;50.526;30.458;2022-07-10T02:43:44;19.10;99.90
42835;DHT22;29335;50.526;30.458;2022-07-10T02:46:10;17.70;99.90
42835;DHT22;29335;50.526;30.458;2022-07-10T02:48:36;17.90;99.90
42835;DHT22;29335;50.526;30.458;2022-07-10T02:51:01;18.30;99.90
42835;DHT22;29335;50.526;30.458;2022-07-10T02:53:27;19.60;99.90
42835;DHT22;29335;50.526;30.458;2022-07-10T02:55:52;18.60;99.90
42835;DHT22;29335;50.526;30.458;2022-07-10T02:58:18;18.70;99.90
42835;DHT22;29335;50.526;30.458;2022-07-10T03:00:45;18.80;99.90
42835;DHT22;29335;50.526;30.458;2022-07-10T03:03:11;18.90;99.90
42835;DHT22;29335;50.526;30.458;2022-07-10T03:05:37;18.90;99.90
42835;DHT22;29335;50.526;30.458;2022-07-10T03:08:03;19.00;99.90
42835;DHT22;29335;50.526;30.458;2022-07-10T03:10:29;19.00;99.90
42835;DHT22;29335;50.526;30.458;2022-07-10T03:12:54;19.00;99.90
42835;DHT22;29335;50.526;30.458;2022-07-10T03:15:20;19.30;99.90
42835;DHT22;29335;50.526;30.458;2022-07-10T03:17:46;20.30;99.90
42835;DHT22;29335;50.526;30.458;2022-07-10T03:20:12;19.50;99.90
42835;DHT22;29335;50.526;30.458;2022-07-10T03:22:37;19.40;99.90
42835;DHT22;29335;50.526;30.458;2022-07-10T03:25:04;20.30;99.90
42835;DHT22;29335;50.526;30.458;2022-07-10T03:27:30;19.60;99.90
42835;DHT22;29335;50.526;30.458;2022-07-10T03:29:55;19.60;99.90
42835;DHT22;29335;50.526;30.458;2022-07-10T03:32:21;19.80;99.90
42835;DHT22;29335;50.526;30.458;2022-07-10T03:34:47;19.90;99.90
42835;DHT22;29335;50.526;30.458;2022-07-10T03:37:13;20.10;99.90
42835;DHT22;29335;50.526;30.458;2022-07-10T03:39:38;20.50;99.90
42835;DHT22;29335;50.526;30.458;2022-07-10T03:42:04;20.70;99.90
42835;DHT22;29335;50.526;30.458;2022-07-10T03:44:31;20.50;99.90
42835;DHT22;29335;50.526;30.458;2022-07-10T03:46:56;20.50;99.90
42835;DHT22;29335;50.526;30.458;2022-07-10T03:49:22;20.60;99.90
42835;DHT22;29335;50.526;30.458;2022-07-10T03:51:48;20.70;99.90
42835;DHT22;29335;50.526;30.458;2022-07-10T03:54:14;20.80;99.90
42835;DHT22;29335;50.526;30.458;2022-07-10T03:56:40;21.20;99.90
42835;DHT22;29335;50.526;30.458;2022-07-10T03:59:24;21.30;99.90
42835;DHT22;29335;50.526;30.458;2022-07-10T04:01:49;21.40;99.90
42835;DHT22;29335;50.526;30.458;2022-07-10T04:04:15;21.40;99.90
42835;DHT22;29335;50.526;30.458;2022-07-10T04:06:40;21.40;99.90
42835;DHT22;29335;50.526;30.458;2022-07-10T04:09:06;21.60;99.80
42835;DHT22;29335;50.526;30.458;2022-07-10T04:11:32;21.70;99.60
42835;DHT22;29335;50.526;30.458;2022-07-10T04:13:58;21.60;99.70
42835;DHT22;29335;50.526;30.458;2022-07-10T04:16:23;21.50;99.70
42835;DHT22;29335;50.526;30.458;2022-07-10T04:18:49;21.50;99.40
42835;DHT22;29335;50.526;30.458;2022-07-10T04:21:15;21.20;99.90
42835;DHT22;29335;50.526;30.458;2022-07-10T04:23:41;21.20;99.90
42835;DHT22;29335;50.526;30.458;2022-07-10T04:26:06;21.10;99.90
42835;DHT22;29335;50.526;30.458;2022-07-10T04:28:32;21.10;99.90
42835;DHT22;29335;50.526;30.458;2022-07-10T04:30:57;21.00;99.90
42835;DHT22;29335;50.526;30.458;2022-07-10T04:33:23;21.00;99.90
42835;DHT22;29335;50.526;30.458;2022-07-10T04:35:50;21.40;99.90
42835;DHT22;29335;50.526;30.458;2022-07-10T04:38:15;20.90;99.90
42835;DHT22;29335;50.526;30.458;2022-07-10T04:40:42;21.00;99.90
42835;DHT22;29335;50.526;30.458;2022-07-10T04:43:07;21.10;99.90
42835;DHT22;29335;50.526;30.458;2022-07-10T04:45:35;21.20;99.80
42835;DHT22;29335;50.526;30.458;2022-07-10T04:48:06;20.90;99.90
42835;DHT22;29335;50.526;30.458;2022-07-10T04:50:31;21.20;99.90
42835;DHT22;29335;50.526;30.458;2022-07-10T04:52:57;21.40;99.50
42835;DHT22;29335;50.526;30.458;2022-07-10T04:55:22;21.70;99.10
42835;DHT22;29335;50.526;30.458;2022-07-10T04:57:48;21.60;99.50
42835;DHT22;29335;50.526;30.458;2022-07-10T05:00:14;21.60;99.50
42835;DHT22;29335;50.526;30.458;2022-07-10T05:02:40;21.60;99.90
42835;DHT22;29335;50.526;30.458;2022-07-10T05:05:06;21.70;99.40
42835;DHT22;29335;50.526;30.458;2022-07-10T05:07:32;22.00;98.70
42835;DHT22;29335;50.526;30.458;2022-07-10T05:09:58;22.30;98.20
42835;DHT22;29335;50.526;30.458;2022-07-10T05:12:23;22.30;98.10
42835;DHT22;29335;50.526;30.458;2022-07-10T05:14:49;22.20;98.60
42835;DHT22;29335;50.526;30.458;2022-07-10T05:17:14;22.10;98.50
42835;DHT22;29335;50.526;30.458;2022-07-10T05:19:40;24.60;99.00
42835;DHT22;29335;50.526;30.458;2022-07-10T05:22:06;22.20;98.70
42835;DHT22;29335;50.526;30.458;2022-07-10T05:24:32;22.50;97.70
42835;DHT22;29335;50.526;30.458;2022-07-10T05:26:58;22.50;97.30
42835;DHT22;29335;50.526;30.458;2022-07-10T05:29:23;22.10;97.80
42835;DHT22;29335;50.526;30.458;2022-07-10T05:31:49;22.70;98.60
42835;DHT22;29335;50.526;30.458;2022-07-10T05:34:15;22.20;99.40
42835;DHT22;29335;50.526;30.458;2022-07-10T05:36:40;21.90;98.30
42835;DHT22;29335;50.526;30.458;2022-07-10T05:39:06;23.00;98.10
42835;DHT22;29335;50.526;30.458;2022-07-10T05:41:32;22.40;97.60
42835;DHT22;29335;50.526;30.458;2022-07-10T05:43:59;22.50;97.30
42835;DHT22;29335;50.526;30.458;2022-07-10T05:46:25;22.30;97.50
42835;DHT22;29335;50.526;30.458;2022-07-10T05:48:50;22.40;97.30
42835;DHT22;29335;50.526;30.458;2022-07-10T05:51:16;22.40;97.30
42835;DHT22;29335;50.526;30.458;2022-07-10T05:53:42;22.40;97.40
42835;DHT22;29335;50.526;30.458;2022-07-10T05:56:07;22.30;97.70
42835;DHT22;29335;50.526;30.458;2022-07-10T05:58:33;22.30;97.70
42835;DHT22;29335;50.526;30.458;2022-07-10T06:00:59;22.70;97.60
42835;DHT22;29335;50.526;30.458;2022-07-10T06:03:25;22.70;97.10
42835;DHT22;29335;50.526;30.458;2022-07-10T06:05:50;22.80;96.50
42835;DHT22;29335;50.526;30.458;2022-07-10T06:08:16;22.80;96.70
42835;DHT22;29335;50.526;30.458;2022-07-10T06:10:42;22.50;97.20
42835;DHT22;29335;50.526;30.458;2022-07-10T06:13:10;22.40;97.20
42835;DHT22;29335;50.526;30.458;2022-07-10T06:15:36;22.30;97.60
42835;DHT22;29335;50.526;30.458;2022-07-10T06:18:02;22.30;97.50
42835;DHT22;29335;50.526;30.458;2022-07-10T06:20:28;22.20;97.70
42835;DHT22;29335;50.526;30.458;2022-07-10T06:22:53;22.10;98.30
42835;DHT22;29335;50.526;30.458;2022-07-10T06:25:20;21.80;98.50
42835;DHT22;29335;50.526;30.458;2022-07-10T06:27:45;21.70;98.80
42835;DHT22;29335;50.526;30.458;2022-07-10T06:30:11;21.60;99.10
42835;DHT22;29335;50.526;30.458;2022-07-10T06:32:38;21.60;99.30
42835;DHT22;29335;50.526;30.458;2022-07-10T06:35:03;22.00;98.70
42835;DHT22;29335;50.526;30.458;2022-07-10T06:37:30;22.00;98.70
42835;DHT22;29335;50.526;30.458;2022-07-10T06:39:56;22.10;98.70
42835;DHT22;29335;50.526;30.458;2022-07-10T06:42:22;22.30;98.50
42835;DHT22;29335;50.526;30.458;2022-07-10T06:44:47;22.90;97.30
42835;DHT22;29335;50.526;30.458;2022-07-10T06:47:15;22.70;97.50
42835;DHT22;29335;50.526;30.458;2022-07-10T06:50:02;22.80;97.50
42835;DHT22;29335;50.526;30.458;2022-07-10T06:52:27;22.70;97.70
42835;DHT22;29335;50.526;30.458;2022-07-10T06:54:53;22.80;97.70
42835;DHT22;29335;50.526;30.458;2022-07-10T06:57:19;22.70;97.60
42835;DHT22;29335;50.526;30.458;2022-07-10T06:59:46;22.50;98.00
42835;DHT22;29335;50.526;30.458;2022-07-10T07:02:12;22.60;97.90
42835;DHT22;29335;50.526;30.458;2022-07-10T07:04:38;22.60;97.90
42835;DHT22;29335;50.526;30.458;2022-07-10T07:07:04;22.40;98.10
42835;DHT22;29335;50.526;30.458;2022-07-10T07:09:29;22.40;98.40
42835;DHT22;29335;50.526;30.458;2022-07-10T07:11:55;22.50;97.90
42835;DHT22;29335;50.526;30.458;2022-07-10T07:14:21;22.50;98.20
42835;DHT22;29335;50.526;30.458;2022-07-10T07:16:46;22.50;98.80
42835;DHT22;29335;50.526;30.458;2022-07-10T07:19:23;22.10;99.00
42835;DHT22;29335;50.526;30.458;2022-07-10T07:21:59;22.30;99.00
42835;DHT22;29335;50.526;30.458;2022-07-10T07:24:43;22.10;99.10
42835;DHT22;29335;50.526;30.458;2022-07-10T07:27:10;22.00;99.60
42835;DHT22;29335;50.526;30.458;2022-07-10T07:29:36;22.50;98.50
42835;DHT22;29335;50.526;30.458;2022-07-10T07:32:03;22.70;98.00
42835;DHT22;29335;50.526;30.458;2022-07-10T07:34:29;22.30;98.80
42835;DHT22;29335;50.526;30.458;2022-07-10T07:36:56;22.30;99.00
42835;DHT22;29335;50.526;30.458;2022-07-10T07:39:22;22.40;98.70
42835;DHT22;29335;50.526;30.458;2022-07-10T07:41:48;22.90;98.00
42835;DHT22;29335;50.526;30.458;2022-07-10T07:44:13;23.00;97.70
42835;DHT22;29335;50.526;30.458;2022-07-10T07:46:41;23.20;97.40
42835;DHT22;29335;50.526;30.458;2022-07-10T07:49:07;23.00;97.80
42835;DHT22;29335;50.526;30.458;2022-07-10T07:51:32;23.00;97.90
42835;DHT22;29335;50.526;30.458;2022-07-10T07:53:58;23.40;97.30
42835;DHT22;29335;50.526;30.458;2022-07-10T07:56:24;23.20;97.10
42835;DHT22;29335;50.526;30.458;2022-07-10T07:58:49;23.10;97.60
42835;DHT22;29335;50.526;30.458;2022-07-10T08:01:15;23.20;97.40
42835;DHT22;29335;50.526;30.458;2022-07-10T08:03:41;23.60;96.70
42835;DHT22;29335;50.526;30.458;2022-07-10T08:06:07;23.90;96.00
42835;DHT22;29335;50.526;30.458;2022-07-10T08:08:33;23.70;95.70
42835;DHT22;29335;50.526;30.458;2022-07-10T08:10:59;23.40;96.50
42835;DHT22;29335;50.526;30.458;2022-07-10T08:13:24;23.30;97.00
42835;DHT22;29335;50.526;30.458;2022-07-10T08:15:50;23.30;97.10
42835;DHT22;29335;50.526;30.458;2022-07-10T08:18:16;24.00;95.20
42835;DHT22;29335;50.526;30.458;2022-07-10T08:20:41;23.80;96.00
42835;DHT22;29335;50.526;30.458;2022-07-10T08:23:07;23.80;96.00
42835;DHT22;29335;50.526;30.458;2022-07-10T08:25:32;23.90;95.40
42835;DHT22;29335;50.526;30.458;2022-07-10T08:28:03;24.10;94.90
42835;DHT22;29335;50.526;30.458;2022-07-10T08:30:31;23.80;95.30
42835;DHT22;29335;50.526;30.458;2022-07-10T08:32:57;23.80;95.60
42835;DHT22;29335;50.526;30.458;2022-07-10T08:35:23;24.00;95.50
42835;DHT22;29335;50.526;30.458;2022-07-10T08:37:48;24.40;94.00
42835;DHT22;29335;50.526;30.458;2022-07-10T08:40:16;24.40;93.70
42835;DHT22;29335;50.526;30.458;2022-07-10T08:42:43;24.20;94.90
42835;DHT22;29335;50.526;30.458;2022-07-10T08:45:12;24.10;95.50
42835;DHT22;29335;50.526;30.458;2022-07-10T08:47:39;24.30;94.90
42835;DHT22;29335;50.526;30.458;2022-07-10T08:50:27;24.40;94.60
42835;DHT22;29335;50.526;30.458;2022-07-10T08:53:07;24.70;94.80
42835;DHT22;29335;50.526;30.458;2022-07-10T08:55:33;24.40;93.70
42835;DHT22;29335;50.526;30.458;2022-07-10T08:58:00;24.50;93.20
42835;DHT22;29335;50.526;30.458;2022-07-10T09:00:27;24.50;93.50
42835;DHT22;29335;50.526;30.458;2022-07-10T09:02:54;24.50;93.50
42835;DHT22;29335;50.526;30.458;2022-07-10T09:05:20;24.60;93.40
42835;DHT22;29335;50.526;30.458;2022-07-10T09:07:45;24.70;93.40
42835;DHT22;29335;50.526;30.458;2022-07-10T09:10:11;24.60;93.80
42835;DHT22;29335;50.526;30.458;2022-07-10T09:12:57;24.80;93.80
42835;DHT22;29335;50.526;30.458;2022-07-10T09:15:25;25.00;93.00
42835;DHT22;29335;50.526;30.458;2022-07-10T09:17:55;25.10;93.70
42835;DHT22;29335;50.526;30.458;2022-07-10T09:25:39;25.30;92.80
42835;DHT22;29335;50.526;30.458;2022-07-10T09:28:05;25.30;92.80
42835;DHT22;29335;50.526;30.458;2022-07-10T09:30:38;25.40;91.90
42835;DHT22;29335;50.526;30.458;2022-07-10T09:33:28;25.20;92.70
42835;DHT22;29335;50.526;30.458;2022-07-10T09:36:10;25.40;92.10
42835;DHT22;29335;50.526;30.458;2022-07-10T09:41:29;24.70;92.20
42835;DHT22;29335;50.526;30.458;2022-07-10T09:44:00;24.40;92.80
42835;DHT22;29335;50.526;30.458;2022-07-10T09:46:35;24.70;91.10
42835;DHT22;29335;50.526;30.458;2022-07-10T09:54:06;24.80;90.40
42835;DHT22;29335;50.526;30.458;2022-07-10T09:56:50;24.30;92.00
42835;DHT22;29335;50.526;30.458;2022-07-10T09:59:21;24.10;92.50
42835;DHT22;29335;50.526;30.458;2022-07-10T10:01:49;24.30;92.80
42835;DHT22;29335;50.526;30.458;2022-07-10T10:04:15;24.50;93.10
42835;DHT22;29335;50.526;30.458;2022-07-10T10:06:42;24.70;92.70
42835;DHT22;29335;50.526;30.458;2022-07-10T10:09:28;24.80;92.60
42835;DHT22;29335;50.526;30.458;2022-07-10T10:11:59;24.70;93.00
42835;DHT22;29335;50.526;30.458;2022-07-10T10:14:28;24.50;93.40
42835;DHT22;29335;50.526;30.458;2022-07-10T10:16:55;24.10;93.70
42835;DHT22;29335;50.526;30.458;2022-07-10T10:19:23;23.90;94.20
42835;DHT22;29335;50.526;30.458;2022-07-10T10:22:08;23.80;94.40
42835;DHT22;29335;50.526;30.458;2022-07-10T10:24:34;24.00;94.10
42835;DHT22;29335;50.526;30.458;2022-07-10T10:27:04;24.10;94.00
42835;DHT22;29335;50.526;30.458;2022-07-10T10:29:31;24.30;94.10
42835;DHT22;29335;50.526;30.458;2022-07-10T10:31:57;24.50;93.30
42835;DHT22;29335;50.526;30.458;2022-07-10T10:34:40;24.60;93.20
42835;DHT22;29335;50.526;30.458;2022-07-10T10:39:54;24.10;93.50
42835;DHT22;29335;50.526;30.458;2022-07-10T10:42:41;24.40;92.50
42835;DHT22;29335;50.526;30.458;2022-07-10T10:48:07;24.50;91.10
42835;DHT22;29335;50.526;30.458;2022-07-10T10:50:49;24.30;92.00
42835;DHT22;29335;50.526;30.458;2022-07-10T10:58:27;24.80;91.60
42835;DHT22;29335;50.526;30.458;2022-07-10T11:01:02;24.70;91.40
42835;DHT22;29335;50.526;30.458;2022-07-10T11:03:28;24.60;91.50
42835;DHT22;29335;50.526;30.458;2022-07-10T11:05:54;24.50;92.20
42835;DHT22;29335;50.526;30.458;2022-07-10T11:08:40;24.90;91.60
42835;DHT22;29335;50.526;30.458;2022-07-10T11:13:59;24.70;90.50
42835;DHT22;29335;50.526;30.458;2022-07-10T11:16:25;24.70;88.00
42835;DHT22;29335;50.526;30.458;2022-07-10T11:18:54;24.90;86.60
42835;DHT22;29335;50.526;30.458;2022-07-10T11:21:25;24.90;87.20
42835;DHT22;29335;50.526;30.458;2022-07-10T11:24:05;24.90;86.60
42835;DHT22;29335;50.526;30.458;2022-07-10T11:29:08;24.90;85.40
42835;DHT22;29335;50.526;30.458;2022-07-10T11:31:34;24.90;83.60
42835;DHT22;29335;50.526;30.458;2022-07-10T11:34:05;24.80;84.60
42835;DHT22;29335;50.526;30.458;2022-07-10T11:36:31;25.00;83.30
42835;DHT22;29335;50.526;30.458;2022-07-10T11:41:26;25.00;85.10
42835;DHT22;29335;50.526;30.458;2022-07-10T11:44:01;25.40;82.70
42835;DHT22;29335;50.526;30.458;2022-07-10T11:46:35;25.40;85.10
42835;DHT22;29335;50.526;30.458;2022-07-10T11:49:04;25.30;86.00
42835;DHT22;29335;50.526;30.458;2022-07-10T11:51:37;25.50;83.90
42835;DHT22;29335;50.526;30.458;2022-07-10T11:56:34;25.50;83.10
42835;DHT22;29335;50.526;30.458;2022-07-10T11:59:08;25.30;85.40
42835;DHT22;29335;50.526;30.458;2022-07-10T12:01:40;25.00;87.50
42835;DHT22;29335;50.526;30.458;2022-07-10T12:04:07;24.90;87.50
42835;DHT22;29335;50.526;30.458;2022-07-10T12:06:39;24.90;85.90
42835;DHT22;29335;50.526;30.458;2022-07-10T12:09:13;25.10;85.80
42835;DHT22;29335;50.526;30.458;2022-07-10T12:11:43;24.90;86.30
42835;DHT22;29335;50.526;30.458;2022-07-10T12:16:42;25.40;81.90
42835;DHT22;29335;50.526;30.458;2022-07-10T12:19:10;25.60;81.70
42835;DHT22;29335;50.526;30.458;2022-07-10T12:21:37;25.50;82.80
42835;DHT22;29335;50.526;30.458;2022-07-10T12:24:04;25.10;84.40
42835;DHT22;29335;50.526;30.458;2022-07-10T12:26:40;25.10;84.80
42835;DHT22;29335;50.526;30.458;2022-07-10T12:29:11;25.80;81.90
42835;DHT22;29335;50.526;30.458;2022-07-10T12:31:44;25.70;83.20
42835;DHT22;29335;50.526;30.458;2022-07-10T12:34:11;25.20;84.60
42835;DHT22;29335;50.526;30.458;2022-07-10T12:36:51;25.10;85.40
42835;DHT22;29335;50.526;30.458;2022-07-10T12:39:22;25.50;83.40
42835;DHT22;29335;50.526;30.458;2022-07-10T12:44:50;25.20;84.70
42835;DHT22;29335;50.526;30.458;2022-07-10T12:47:20;25.60;82.90
42835;DHT22;29335;50.526;30.458;2022-07-10T12:49:56;25.20;84.20
42835;DHT22;29335;50.526;30.458;2022-07-10T12:52:34;25.10;84.70
42835;DHT22;29335;50.526;30.458;2022-07-10T12:55:16;24.90;84.40
42835;DHT22;29335;50.526;30.458;2022-07-10T12:58:03;24.90;83.40
42835;DHT22;29335;50.526;30.458;2022-07-10T13:00:32;25.10;83.20
42835;DHT22;29335;50.526;30.458;2022-07-10T13:03:03;25.30;82.10
42835;DHT22;29335;50.526;30.458;2022-07-10T13:10:38;25.40;81.80
42835;DHT22;29335;50.526;30.458;2022-07-10T13:13:05;25.20;82.40
42835;DHT22;29335;50.526;30.458;2022-07-10T13:15:31;25.20;82.50
42835;DHT22;29335;50.526;30.458;2022-07-10T13:17:59;25.50;82.30
42835;DHT22;29335;50.526;30.458;2022-07-10T13:20:25;25.70;80.70
42835;DHT22;29335;50.526;30.458;2022-07-10T13:22:51;26.30;80.80
42835;DHT22;29335;50.526;30.458;2022-07-10T13:25:16;26.10;79.60
42835;DHT22;29335;50.526;30.458;2022-07-10T13:27:42;26.00;79.20
42835;DHT22;29335;50.526;30.458;2022-07-10T13:30:08;26.00;79.80
42835;DHT22;29335;50.526;30.458;2022-07-10T13:32:34;25.70;80.40
42835;DHT22;29335;50.526;30.458;2022-07-10T13:34:59;25.60;81.10
42835;DHT22;29335;50.526;30.458;2022-07-10T13:37:25;25.90;80.80
42835;DHT22;29335;50.526;30.458;2022-07-10T13:39:51;26.20;79.00
42835;DHT22;29335;50.526;30.458;2022-07-10T13:42:17;26.10;79.90
42835;DHT22;29335;50.526;30.458;2022-07-10T13:44:42;25.90;79.50
42835;DHT22;29335;50.526;30.458;2022-07-10T13:47:08;25.80;79.30
42835;DHT22;29335;50.526;30.458;2022-07-10T13:49:34;25.80;81.00
42835;DHT22;29335;50.526;30.458;2022-07-10T13:51:59;25.70;81.00
42835;DHT22;29335;50.526;30.458;2022-07-10T13:54:25;25.70;80.70
42835;DHT22;29335;50.526;30.458;2022-07-10T13:56:51;25.40;80.70
42835;DHT22;29335;50.526;30.458;2022-07-10T13:59:17;25.40;81.60
42835;DHT22;29335;50.526;30.458;2022-07-10T14:01:42;25.40;82.20
42835;DHT22;29335;50.526;30.458;2022-07-10T14:04:08;25.30;82.10
42835;DHT22;29335;50.526;30.458;2022-07-10T14:06:33;25.40;82.20
42835;DHT22;29335;50.526;30.458;2022-07-10T14:08:59;25.40;82.60
42835;DHT22;29335;50.526;30.458;2022-07-10T14:11:25;25.20;83.80
42835;DHT22;29335;50.526;30.458;2022-07-10T14:13:50;25.10;84.60
42835;DHT22;29335;50.526;30.458;2022-07-10T14:16:16;24.80;85.40
42835;DHT22;29335;50.526;30.458;2022-07-10T14:18:42;25.30;84.80
42835;DHT22;29335;50.526;30.458;2022-07-10T14:21:11;25.20;83.40
42835;DHT22;29335;50.526;30.458;2022-07-10T14:23:39;24.90;84.00
42835;DHT22;29335;50.526;30.458;2022-07-10T14:26:07;24.60;84.80
42835;DHT22;29335;50.526;30.458;2022-07-10T14:28:33;25.10;82.60
42835;DHT22;29335;50.526;30.458;2022-07-10T14:31:01;24.90;80.60
42835;DHT22;29335;50.526;30.458;2022-07-10T14:33:29;24.90;80.40
42835;DHT22;29335;50.526;30.458;2022-07-10T14:35:55;24.90;80.90
42835;DHT22;29335;50.526;30.458;2022-07-10T14:38:21;25.00;80.40
42835;DHT22;29335;50.526;30.458;2022-07-10T14:40:46;24.80;80.90
42835;DHT22;29335;50.526;30.458;2022-07-10T14:43:12;25.10;79.60
42835;DHT22;29335;50.526;30.458;2022-07-10T14:45:38;25.00;79.80
42835;DHT22;29335;50.526;30.458;2022-07-10T14:48:04;24.40;81.00
42835;DHT22;29335;50.526;30.458;2022-07-10T14:50:29;24.40;80.70
42835;DHT22;29335;50.526;30.458;2022-07-10T14:52:55;24.50;80.40
42835;DHT22;29335;50.526;30.458;2022-07-10T14:55:21;24.70;79.80
42835;DHT22;29335;50.526;30.458;2022-07-10T14:57:47;24.40;80.20
42835;DHT22;29335;50.526;30.458;2022-07-10T15:00:14;24.70;78.90
42835;DHT22;29335;50.526;30.458;2022-07-10T15:02:39;24.80;78.40
42835;DHT22;29335;50.526;30.458;2022-07-10T15:05:05;24.50;78.80
42835;DHT22;29335;50.526;30.458;2022-07-10T15:07:33;24.70;79.40
42835;DHT22;29335;50.526;30.458;2022-07-10T15:09:59;24.40;79.60
42835;DHT22;29335;50.526;30.458;2022-07-10T15:12:24;24.40;80.00
42835;DHT22;29335;50.526;30.458;2022-07-10T15:14:50;24.80;78.90
42835;DHT22;29335;50.526;30.458;2022-07-10T15:17:15;24.70;78.70
42835;DHT22;29335;50.526;30.458;2022-07-10T15:19:41;24.70;79.10
42835;DHT22;29335;50.526;30.458;2022-07-10T15:22:07;24.80;79.00
42835;DHT22;29335;50.526;30.458;2022-07-10T15:24:32;25.00;79.10
42835;DHT22;29335;50.526;30.458;2022-07-10T15:26:58;25.10;79.20
42835;DHT22;29335;50.526;30.458;2022-07-10T15:29:23;25.10;78.60
42835;DHT22;29335;50.526;30.458;2022-07-10T15:31:51;25.00;79.30
42835;DHT22;29335;50.526;30.458;2022-07-10T15:34:17;24.90;79.30
42835;DHT22;29335;50.526;30.458;2022-07-10T15:36:43;24.90;80.10
42835;DHT22;29335;50.526;30.458;2022-07-10T15:39:12;24.90;80.40
42835;DHT22;29335;50.526;30.458;2022-07-10T15:41:38;24.60;81.50
42835;DHT22;29335;50.526;30.458;2022-07-10T15:44:05;24.30;82.40
42835;DHT22;29335;50.526;30.458;2022-07-10T15:46:31;24.70;82.30
42835;DHT22;29335;50.526;30.458;2022-07-10T15:48:57;24.80;81.90
42835;DHT22;29335;50.526;30.458;2022-07-10T15:51:24;24.70;82.40
42835;DHT22;29335;50.526;30.458;2022-07-10T15:53:49;24.50;83.10
42835;DHT22;29335;50.526;30.458;2022-07-10T15:56:15;24.50;83.40
42835;DHT22;29335;50.526;30.458;2022-07-10T15:58:41;24.60;83.10
42835;DHT22;29335;50.526;30.458;2022-07-10T16:01:08;24.50;83.90